Time;durP1;ratioP1;P1;durP2;ratioP2;P2;SDS_P1;SDS_P2;PMS_P1;PMS_P2;Temp;Humidity;BMP_temperature;BMP_pressure;BME280_temperature;BME280_humidity;BME280_pressure;Samples;Min_cycle;Max_cycle;Signal;HPM_P1;HPM_P2
2021/01/25 00:00:48;;;;;;;31.17;4.30;;;;;;;;;;4973483;28;20095;-45
2021/01/25 00:03:15;;;;;;;25.38;3.90;;;;;;;;;;4971917;28;20149;-48
2021/01/25 00:05:42;;;;;;;27.27;4.05;;;;;;;;;;4973545;28;20027;-41
2021/01/25 00:08:09;;;;;;;18.63;3.80;;;;;;;;;;4973465;28;20422;-43
2021/01/25 00:10:36;;;;;;;22.00;3.63;;;;;;;;;;4973652;28;20030;-42
2021/01/25 00:13:03;;;;;;;23.60;4.20;;;;;;;;;;4972776;28;20064;-41
2021/01/25 00:15:30;;;;;;;33.25;4.30;;;;;;;;;;4970816;28;20130;-50
2021/01/25 00:17:57;;;;;;;23.23;4.35;;;;;;;;;;4973548;28;20023;-48
2021/01/25 00:20:27;;;;;;;30.58;4.78;;;;;;;;;;4967277;28;20023;-49
2021/01/25 00:22:54;;;;;;;46.45;5.78;;;;;;;;;;4971072;28;20465;-50
2021/01/25 00:25:21;;;;;;;29.40;4.53;;;;;;;;;;4972108;28;20150;-48
2021/01/25 00:27:48;;;;;;;47.15;5.20;;;;;;;;;;4972159;28;20031;-48
2021/01/25 00:30:16;;;;;;;36.42;5.50;;;;;;;;;;4972755;28;20037;-51
2021/01/25 00:32:43;;;;;;;36.10;5.55;;;;;;;;;;4973038;28;20029;-50
2021/01/25 00:35:11;;;;;;;28.52;5.82;;;;;;;;;;4972729;28;20023;-47
2021/01/25 00:37:38;;;;;;;40.60;6.22;;;;;;;;;;4969708;28;20025;-48
2021/01/25 00:40:06;;;;;;;45.15;6.72;;;;;;;;;;4971772;28;20504;-48
2021/01/25 00:42:33;;;;;;;39.13;7.20;;;;;;;;;;4967142;28;20469;-49
2021/01/25 00:45:00;;;;;;;58.28;7.68;;;;;;;;;;4966608;28;20038;-51
2021/01/25 00:47:30;;;;;;;31.60;7.40;;;;;;;;;;4970256;28;20029;-51
2021/01/25 00:50:03;;;;;;;41.97;7.43;;;;;;;;;;4972303;28;20389;-53
2021/01/25 00:52:30;;;;;;;35.17;8.40;;;;;;;;;;4966787;28;20101;-52
2021/01/25 00:54:57;;;;;;;33.95;7.53;;;;;;;;;;4970049;28;20529;-53
2021/01/25 00:57:24;;;;;;;36.00;7.78;;;;;;;;;;4972300;28;20027;-50
2021/01/25 00:59:52;;;;;;;38.20;8.60;;;;;;;;;;4968879;28;20021;-49
2021/01/25 01:02:19;;;;;;;36.80;9.23;;;;;;;;;;4967796;28;20101;-48
2021/01/25 01:04:46;;;;;;;54.17;10.55;;;;;;;;;;4971027;28;20015;-48
2021/01/25 01:07:13;;;;;;;54.88;11.10;;;;;;;;;;4971742;28;20031;-49
2021/01/25 01:09:41;;;;;;;46.53;9.80;;;;;;;;;;4971463;28;20102;-49
2021/01/25 01:12:08;;;;;;;33.40;9.85;;;;;;;;;;4971794;28;20063;-52
2021/01/25 01:14:35;;;;;;;32.70;10.05;;;;;;;;;;4971411;28;20080;-52
2021/01/25 01:17:02;;;;;;;34.45;8.55;;;;;;;;;;4972029;28;20054;-54
2021/01/25 01:19:29;;;;;;;30.08;7.82;;;;;;;;;;4985543;28;20093;-58
2021/01/25 01:21:56;;;;;;;32.78;7.65;;;;;;;;;;4971309;28;20023;-57
2021/01/25 01:24:23;;;;;;;29.95;6.97;;;;;;;;;;4970590;28;20066;-54
2021/01/25 01:26:50;;;;;;;25.90;5.45;;;;;;;;;;4954246;28;20082;-52
2021/01/25 01:29:17;;;;;;;24.77;4.95;;;;;;;;;;4952319;28;20153;-57
2021/01/25 01:31:45;;;;;;;28.63;4.82;;;;;;;;;;4958405;28;20026;-57
2021/01/25 01:34:12;;;;;;;17.58;3.67;;;;;;;;;;4970585;28;20785;-60
2021/01/25 01:36:39;;;;;;;21.20;4.00;;;;;;;;;;4971299;28;20034;-58
2021/01/25 01:39:06;;;;;;;41.60;4.40;;;;;;;;;;4971521;28;20073;-52
2021/01/25 01:41:39;;;;;;;27.42;3.78;;;;;;;;;;4971293;28;20461;-55
2021/01/25 01:44:09;;;;;;;27.80;4.10;;;;;;;;;;4970742;28;20034;-55
2021/01/25 01:46:36;;;;;;;20.20;3.50;;;;;;;;;;4969027;28;20018;-58
2021/01/25 01:49:04;;;;;;;30.15;3.83;;;;;;;;;;4971386;28;20019;-56
2021/01/25 01:51:31;;;;;;;21.45;3.00;;;;;;;;;;4971497;28;20023;-58
2021/01/25 01:53:59;;;;;;;17.38;3.13;;;;;;;;;;4971329;28;20035;-58
2021/01/25 01:56:26;;;;;;;19.55;3.00;;;;;;;;;;4970377;28;20023;-59
2021/01/25 01:58:53;;;;;;;23.10;3.35;;;;;;;;;;4970362;28;20030;-59
2021/01/25 02:01:20;;;;;;;22.55;3.22;;;;;;;;;;4971189;28;20102;-58
2021/01/25 02:03:47;;;;;;;21.65;3.30;;;;;;;;;;4970239;28;20022;-58
2021/01/25 02:06:15;;;;;;;15.70;3.10;;;;;;;;;;4969931;28;20080;-59
2021/01/25 02:08:42;;;;;;;28.58;3.33;;;;;;;;;;4971334;28;20023;-60
2021/01/25 02:11:10;;;;;;;17.27;2.65;;;;;;;;;;4970395;28;20027;-60
2021/01/25 02:13:37;;;;;;;19.42;2.58;;;;;;;;;;4970747;28;20539;-58
2021/01/25 02:16:04;;;;;;;21.67;2.92;;;;;;;;;;4970245;28;20023;-59
2021/01/25 02:18:36;;;;;;;15.52;2.55;;;;;;;;;;4968237;28;20030;-59
2021/01/25 02:21:07;;;;;;;17.33;2.93;;;;;;;;;;4970789;28;20023;-60
2021/01/25 02:23:58;;;;;;;20.90;2.40;;;;;;;;;;4970022;28;20353;-58
2021/01/25 02:26:44;;;;;;;24.75;2.00;;;;;;;;;;4970636;28;20504;-59
2021/01/25 02:29:11;;;;;;;18.05;1.77;;;;;;;;;;4961926;28;20023;-61
2021/01/25 02:31:39;;;;;;;31.00;2.42;;;;;;;;;;4970573;28;20478;-60
2021/01/25 02:34:06;;;;;;;12.75;1.40;;;;;;;;;;4970541;28;20109;-59
2021/01/25 02:36:34;;;;;;;5.15;0.88;;;;;;;;;;4970519;28;20038;-59
2021/01/25 02:39:02;;;;;;;13.57;1.35;;;;;;;;;;4970859;28;20011;-61
2021/01/25 02:41:30;;;;;;;9.80;1.10;;;;;;;;;;4969272;28;20027;-59
2021/01/25 02:43:58;;;;;;;12.07;1.52;;;;;;;;;;4969121;28;20470;-60
2021/01/25 02:46:26;;;;;;;12.43;1.40;;;;;;;;;;4969763;28;20049;-59
2021/01/25 02:48:53;;;;;;;19.02;1.50;;;;;;;;;;4968915;28;20062;-59
2021/01/25 02:51:20;;;;;;;13.15;2.20;;;;;;;;;;4965636;28;20429;-59
2021/01/25 02:53:47;;;;;;;11.50;1.48;;;;;;;;;;4969371;28;20072;-61
2021/01/25 02:56:15;;;;;;;13.52;1.40;;;;;;;;;;4967743;28;20011;-60
2021/01/25 02:58:42;;;;;;;11.32;1.90;;;;;;;;;;4968482;28;20557;-60
2021/01/25 03:01:09;;;;;;;10.13;1.05;;;;;;;;;;4970288;28;20011;-61
2021/01/25 03:03:36;;;;;;;6.63;1.20;;;;;;;;;;4970322;28;20014;-58
2021/01/25 03:06:03;;;;;;;2.97;0.90;;;;;;;;;;4969964;28;20053;-63
2021/01/25 03:08:31;;;;;;;10.38;0.80;;;;;;;;;;4968794;28;20026;-60
2021/01/25 03:10:57;;;;;;;8.77;1.30;;;;;;;;;;4969829;28;20488;-61
2021/01/25 03:13:28;;;;;;;9.07;1.35;;;;;;;;;;4969894;28;20074;-60
2021/01/25 03:15:57;;;;;;;5.82;1.02;;;;;;;;;;4970084;28;20495;-59
2021/01/25 03:18:24;;;;;;;9.32;1.10;;;;;;;;;;4970125;28;20105;-60
2021/01/25 03:20:52;;;;;;;8.02;1.02;;;;;;;;;;4969999;28;20485;-61
2021/01/25 03:23:19;;;;;;;7.60;1.23;;;;;;;;;;4967664;28;20042;-62
2021/01/25 03:25:47;;;;;;;24.40;1.92;;;;;;;;;;4968394;28;20524;-58
2021/01/25 03:28:14;;;;;;;18.15;2.22;;;;;;;;;;4965507;28;20105;-57
2021/01/25 03:30:41;;;;;;;12.02;0.90;;;;;;;;;;4966559;28;20023;-59
2021/01/25 03:33:08;;;;;;;9.55;1.35;;;;;;;;;;4969372;28;20027;-58
2021/01/25 03:35:35;;;;;;;11.77;0.98;;;;;;;;;;4957457;28;20391;-57
2021/01/25 03:38:02;;;;;;;10.82;1.23;;;;;;;;;;4952176;28;20041;-56
2021/01/25 03:40:29;;;;;;;13.38;1.63;;;;;;;;;;4959888;28;20046;-58
2021/01/25 03:42:56;;;;;;;5.28;1.65;;;;;;;;;;4967102;28;20015;-55
2021/01/25 03:45:24;;;;;;;18.15;1.73;;;;;;;;;;4969559;28;20023;-52
2021/01/25 03:47:51;;;;;;;9.05;1.20;;;;;;;;;;4969816;28;20538;-54
2021/01/25 03:50:18;;;;;;;14.80;1.20;;;;;;;;;;4969504;28;20386;-54
2021/01/25 03:52:45;;;;;;;7.10;0.90;;;;;;;;;;4966787;28;20019;-58
2021/01/25 03:55:12;;;;;;;12.68;1.20;;;;;;;;;;4969425;28;20057;-57
2021/01/25 03:57:39;;;;;;;11.38;1.20;;;;;;;;;;4969290;28;20526;-55
2021/01/25 04:00:07;;;;;;;12.10;1.40;;;;;;;;;;4968024;28;20402;-51
2021/01/25 04:02:34;;;;;;;6.55;0.77;;;;;;;;;;4968488;28;20015;-52
2021/01/25 04:05:01;;;;;;;2.58;0.60;;;;;;;;;;4977181;28;20062;-51
2021/01/25 04:07:28;;;;;;;7.72;0.98;;;;;;;;;;4963784;28;20019;-51
2021/01/25 04:09:55;;;;;;;16.13;2.65;;;;;;;;;;5015198;28;20021;-53
2021/01/25 04:12:22;;;;;;;8.32;1.00;;;;;;;;;;5016713;28;20015;-54
2021/01/25 04:14:49;;;;;;;9.43;1.13;;;;;;;;;;4968954;28;20023;-52
2021/01/25 04:17:16;;;;;;;12.63;1.10;;;;;;;;;;4969124;28;20019;-49
2021/01/25 04:19:43;;;;;;;17.88;1.67;;;;;;;;;;4970401;28;20080;-48
2021/01/25 04:22:10;;;;;;;14.85;1.33;;;;;;;;;;4972449;28;20025;-52
2021/01/25 04:24:37;;;;;;;8.25;1.20;;;;;;;;;;4971540;28;20043;-50
2021/01/25 04:27:05;;;;;;;9.65;0.80;;;;;;;;;;4970487;28;20031;-52
2021/01/25 04:29:32;;;;;;;3.50;0.77;;;;;;;;;;4972611;28;20130;-54
2021/01/25 04:31:59;;;;;;;7.75;0.70;;;;;;;;;;4972772;28;20096;-50
2021/01/25 04:34:26;;;;;;;10.57;1.33;;;;;;;;;;4970242;28;20034;-56
2021/01/25 04:36:53;;;;;;;11.23;1.52;;;;;;;;;;4972608;28;20026;-52
2021/01/25 04:39:20;;;;;;;9.15;0.80;;;;;;;;;;4972996;28;20434;-52
2021/01/25 04:41:47;;;;;;;6.95;0.90;;;;;;;;;;4972735;28;20015;-52
2021/01/25 04:44:15;;;;;;;5.78;1.30;;;;;;;;;;4971446;28;20445;-50
2021/01/25 04:46:44;;;;;;;8.05;0.93;;;;;;;;;;4972742;28;20027;-49
2021/01/25 04:49:15;;;;;;;8.63;0.77;;;;;;;;;;4970325;28;20458;-52
2021/01/25 04:51:42;;;;;;;8.80;1.52;;;;;;;;;;4971406;28;20729;-54
2021/01/25 04:54:10;;;;;;;10.38;1.10;;;;;;;;;;4965895;28;20043;-51
2021/01/25 04:56:37;;;;;;;4.90;0.80;;;;;;;;;;4978256;28;20035;-49
2021/01/25 04:59:04;;;;;;;7.30;1.23;;;;;;;;;;4970476;28;20060;-54
2021/01/25 05:01:31;;;;;;;4.18;1.00;;;;;;;;;;4968906;28;20076;-55
2021/01/25 05:03:58;;;;;;;6.35;0.80;;;;;;;;;;4972185;28;20030;-55
2021/01/25 05:06:25;;;;;;;8.05;0.90;;;;;;;;;;4972626;28;20015;-57
2021/01/25 05:08:52;;;;;;;11.40;1.17;;;;;;;;;;4972944;28;20019;-54
2021/01/25 05:11:19;;;;;;;7.35;1.10;;;;;;;;;;4973064;28;20235;-52
2021/01/25 05:13:47;;;;;;;6.25;0.75;;;;;;;;;;4972776;28;20042;-57
2021/01/25 05:16:21;;;;;;;7.47;0.93;;;;;;;;;;4972820;28;20398;-55
2021/01/25 05:18:55;;;;;;;8.05;1.23;;;;;;;;;;4972624;28;20493;-56
2021/01/25 05:21:41;;;;;;;6.60;1.45;;;;;;;;;;4972764;28;20026;-56
2021/01/25 05:24:10;;;;;;;2.70;0.70;;;;;;;;;;4972619;28;20078;-54
2021/01/25 05:26:40;;;;;;;5.75;0.98;;;;;;;;;;4972474;28;20077;-58
2021/01/25 05:29:07;;;;;;;5.05;0.80;;;;;;;;;;4971141;28;20050;-58
2021/01/25 05:31:34;;;;;;;8.32;1.35;;;;;;;;;;4970527;28;20047;-56
2021/01/25 05:34:01;;;;;;;7.10;1.10;;;;;;;;;;4972641;28;20134;-57
2021/01/25 05:36:30;;;;;;;9.50;0.90;;;;;;;;;;4972344;28;20042;-56
2021/01/25 05:38:57;;;;;;;5.22;0.82;;;;;;;;;;4972447;28;20022;-56
2021/01/25 05:41:24;;;;;;;9.98;0.90;;;;;;;;;;4972560;28;20031;-54
2021/01/25 05:43:51;;;;;;;6.03;0.82;;;;;;;;;;4972350;28;20027;-55
2021/01/25 05:46:19;;;;;;;8.95;0.95;;;;;;;;;;4972268;28;20043;-54
2021/01/25 05:48:56;;;;;;;10.55;1.42;;;;;;;;;;4972374;28;20428;-53
2021/01/25 05:51:23;;;;;;;12.48;1.25;;;;;;;;;;4972229;28;20019;-53
2021/01/25 05:53:51;;;;;;;7.30;0.90;;;;;;;;;;4972183;28;20113;-54
2021/01/25 05:56:18;;;;;;;6.32;0.90;;;;;;;;;;4972337;28;20016;-55
2021/01/25 05:58:45;;;;;;;5.35;0.80;;;;;;;;;;4971011;28;20084;-55
2021/01/25 06:01:12;;;;;;;8.20;1.13;;;;;;;;;;4972128;28;20026;-54
2021/01/25 06:03:39;;;;;;;6.93;0.80;;;;;;;;;;4972238;28;20033;-53
2021/01/25 06:06:10;;;;;;;9.50;0.95;;;;;;;;;;4972185;28;20160;-54
2021/01/25 06:08:37;;;;;;;13.63;1.10;;;;;;;;;;4972079;28;20029;-55
2021/01/25 06:11:09;;;;;;;7.47;0.95;;;;;;;;;;4971932;28;20511;-55
2021/01/25 06:13:40;;;;;;;5.85;1.00;;;;;;;;;;4972019;28;20153;-55
2021/01/25 06:16:09;;;;;;;4.05;0.80;;;;;;;;;;4971887;28;20034;-54
2021/01/25 06:18:37;;;;;;;3.88;0.70;;;;;;;;;;4971873;28;20073;-54
2021/01/25 06:21:06;;;;;;;10.35;1.08;;;;;;;;;;4971747;28;20098;-54
2021/01/25 06:23:34;;;;;;;4.72;1.15;;;;;;;;;;4971685;28;20058;-54
2021/01/25 06:26:01;;;;;;;11.07;0.80;;;;;;;;;;4971639;28;20022;-55
2021/01/25 06:28:28;;;;;;;20.35;1.38;;;;;;;;;;4971717;28;20054;-55
2021/01/25 06:30:56;;;;;;;2.83;0.60;;;;;;;;;;4971894;28;20532;-55
2021/01/25 06:33:23;;;;;;;6.13;1.50;;;;;;;;;;4970241;28;20082;-54
2021/01/25 06:35:51;;;;;;;7.85;1.13;;;;;;;;;;4970284;28;20118;-53
2021/01/25 06:38:22;;;;;;;5.90;0.80;;;;;;;;;;4971595;28;20033;-55
2021/01/25 06:40:50;;;;;;;4.05;0.90;;;;;;;;;;4971395;28;20102;-53
2021/01/25 06:43:18;;;;;;;9.63;1.17;;;;;;;;;;4971141;28;20413;-55
2021/01/25 06:45:46;;;;;;;8.13;0.95;;;;;;;;;;4971564;28;20019;-56
2021/01/25 06:48:15;;;;;;;5.97;0.80;;;;;;;;;;4971465;28;20027;-56
2021/01/25 06:50:49;;;;;;;6.18;0.82;;;;;;;;;;4962918;28;20016;-49
2021/01/25 06:53:16;;;;;;;9.63;1.10;;;;;;;;;;4958188;28;20038;-49
2021/01/25 06:55:44;;;;;;;6.43;0.93;;;;;;;;;;4971369;28;20019;-55
2021/01/25 06:58:12;;;;;;;6.10;0.80;;;;;;;;;;4971048;28;20023;-49
2021/01/25 07:00:42;;;;;;;7.32;0.90;;;;;;;;;;4970951;28;20018;-50
2021/01/25 07:03:09;;;;;;;7.40;1.10;;;;;;;;;;4971042;28;20386;-49
2021/01/25 07:05:39;;;;;;;6.75;0.75;;;;;;;;;;4971025;28;20038;-50
2021/01/25 07:08:35;;;;;;;3.38;0.70;;;;;;;;;;4970914;28;20762;-49
2021/01/25 07:11:07;;;;;;;5.85;0.70;;;;;;;;;;4958352;28;20482;-49
2021/01/25 07:13:35;;;;;;;5.75;0.90;;;;;;;;;;4970790;28;20492;-48
2021/01/25 07:16:02;;;;;;;4.43;0.70;;;;;;;;;;4970849;28;20069;-52
2021/01/25 07:18:30;;;;;;;8.13;0.88;;;;;;;;;;4970805;28;20046;-48
2021/01/25 07:20:58;;;;;;;9.38;0.98;;;;;;;;;;4969334;28;20029;-52
2021/01/25 07:23:26;;;;;;;7.78;1.10;;;;;;;;;;4970616;28;20129;-48
2021/01/25 07:25:57;;;;;;;5.32;0.80;;;;;;;;;;4970911;28;20023;-53
2021/01/25 07:28:24;;;;;;;5.30;0.80;;;;;;;;;;4969398;28;20428;-48
2021/01/25 07:30:51;;;;;;;8.57;0.80;;;;;;;;;;4970506;28;20019;-55
2021/01/25 07:33:19;;;;;;;13.60;1.17;;;;;;;;;;4970747;28;20045;-56
2021/01/25 07:35:46;;;;;;;4.40;0.80;;;;;;;;;;4970724;28;20023;-57
2021/01/25 07:38:14;;;;;;;4.57;0.73;;;;;;;;;;4970795;28;20015;-58
2021/01/25 07:40:43;;;;;;;9.45;1.00;;;;;;;;;;4970802;28;20370;-58
2021/01/25 07:43:11;;;;;;;6.32;0.90;;;;;;;;;;4970795;28;20015;-56
2021/01/25 07:45:38;;;;;;;4.93;1.27;;;;;;;;;;4970564;28;20019;-58
2021/01/25 07:48:05;;;;;;;4.30;0.80;;;;;;;;;;4970760;28;20058;-56
2021/01/25 07:50:32;;;;;;;15.77;1.73;;;;;;;;;;4970576;28;20424;-57
2021/01/25 07:53:00;;;;;;;4.50;0.70;;;;;;;;;;4970645;28;20083;-58
2021/01/25 07:55:28;;;;;;;3.97;0.55;;;;;;;;;;4974213;28;20109;-57
2021/01/25 07:58:00;;;;;;;9.88;1.05;;;;;;;;;;4973953;28;20019;-59
2021/01/25 08:00:29;;;;;;;5.32;0.80;;;;;;;;;;4973831;28;20030;-57
2021/01/25 08:03:18;;;;;;;9.68;1.30;;;;;;;;;;4973860;28;20025;-55
2021/01/25 08:05:49;;;;;;;6.93;1.08;;;;;;;;;;4976106;28;20042;-56
2021/01/25 08:08:16;;;;;;;11.63;1.15;;;;;;;;;;4974007;28;20038;-56
2021/01/25 08:10:43;;;;;;;6.10;0.95;;;;;;;;;;4973828;28;20167;-55
2021/01/25 08:13:19;;;;;;;5.55;1.00;;;;;;;;;;4973588;28;20466;-55
2021/01/25 08:16:12;;;;;;;7.72;1.00;;;;;;;;;;4973772;28;20425;-55
2021/01/25 08:18:44;;;;;;;5.35;1.00;;;;;;;;;;4974151;28;20409;-55
2021/01/25 08:21:15;;;;;;;5.93;1.27;;;;;;;;;;4973556;28;20045;-55
2021/01/25 08:23:45;;;;;;;9.70;1.27;;;;;;;;;;4973494;28;20051;-54
2021/01/25 08:26:12;;;;;;;3.42;1.08;;;;;;;;;;4973575;28;20030;-57
2021/01/25 08:28:42;;;;;;;11.00;1.60;;;;;;;;;;4973551;28;20469;-54
2021/01/25 08:31:14;;;;;;;6.97;1.52;;;;;;;;;;4973597;28;20486;-54
2021/01/25 08:33:43;;;;;;;9.10;1.45;;;;;;;;;;4973551;28;20031;-53
2021/01/25 08:36:12;;;;;;;12.15;1.55;;;;;;;;;;4973269;28;20497;-53
2021/01/25 08:38:44;;;;;;;15.75;1.85;;;;;;;;;;4973310;28;20014;-54
2021/01/25 08:41:17;;;;;;;11.85;1.70;;;;;;;;;;4973478;28;20023;-55
2021/01/25 08:43:52;;;;;;;12.75;1.58;;;;;;;;;;4973226;28;20057;-54
2021/01/25 08:46:21;;;;;;;15.77;1.65;;;;;;;;;;4973300;28;20022;-55
2021/01/25 08:48:48;;;;;;;8.07;1.50;;;;;;;;;;4972982;28;20485;-54
2021/01/25 08:51:27;;;;;;;14.70;1.65;;;;;;;;;;4972015;28;20027;-56
2021/01/25 08:54:19;;;;;;;20.10;2.40;;;;;;;;;;4973255;28;20088;-55
2021/01/25 08:56:46;;;;;;;26.33;3.15;;;;;;;;;;4973379;28;20023;-54
2021/01/25 08:59:15;;;;;;;33.45;2.40;;;;;;;;;;4972868;28;20027;-55
2021/01/25 09:01:45;;;;;;;23.65;2.45;;;;;;;;;;4973004;28;20026;-55
2021/01/25 09:04:12;;;;;;;17.67;2.22;;;;;;;;;;4972787;28;20103;-55
2021/01/25 09:06:49;;;;;;;14.10;2.10;;;;;;;;;;4972059;28;20022;-55
2021/01/25 09:09:16;;;;;;;29.98;2.75;;;;;;;;;;4971840;28;20054;-56
2021/01/25 09:11:43;;;;;;;27.75;2.35;;;;;;;;;;4972782;28;20023;-53
2021/01/25 09:14:10;;;;;;;21.80;2.95;;;;;;;;;;4972892;28;20104;-52
2021/01/25 09:16:37;;;;;;;14.38;2.00;;;;;;;;;;4972773;28;20057;-56
2021/01/25 09:19:05;;;;;;;16.20;2.00;;;;;;;;;;4972818;28;20156;-56
2021/01/25 09:21:32;;;;;;;17.85;2.45;;;;;;;;;;4972734;28;20041;-54
2021/01/25 09:23:59;;;;;;;12.25;1.65;;;;;;;;;;4972533;28;20105;-53
2021/01/25 09:26:26;;;;;;;22.95;2.33;;;;;;;;;;4972691;28;20022;-55
2021/01/25 09:28:53;;;;;;;21.55;2.38;;;;;;;;;;4972805;28;20110;-55
2021/01/25 09:31:24;;;;;;;15.27;2.38;;;;;;;;;;4972496;28;20528;-55
2021/01/25 09:33:51;;;;;;;23.83;2.57;;;;;;;;;;4972422;28;20092;-55
2021/01/25 09:36:18;;;;;;;18.83;2.35;;;;;;;;;;4972609;28;20061;-56
2021/01/25 09:38:45;;;;;;;14.77;2.05;;;;;;;;;;4972544;28;20090;-55
2021/01/25 09:41:12;;;;;;;26.45;3.22;;;;;;;;;;4972243;28;20538;-55
2021/01/25 09:43:39;;;;;;;21.95;2.70;;;;;;;;;;4972580;28;20033;-55
2021/01/25 09:46:06;;;;;;;27.45;2.53;;;;;;;;;;4972509;28;20421;-56
2021/01/25 09:48:33;;;;;;;38.92;3.92;;;;;;;;;;4972344;28;20034;-56
2021/01/25 09:51:00;;;;;;;32.15;4.35;;;;;;;;;;4972437;28;20474;-55
2021/01/25 09:53:28;;;;;;;39.40;3.45;;;;;;;;;;4972457;28;20027;-57
2021/01/25 09:55:55;;;;;;;40.53;4.13;;;;;;;;;;4972169;28;20089;-57
2021/01/25 09:58:23;;;;;;;36.03;3.63;;;;;;;;;;4972220;28;20033;-57
2021/01/25 10:00:50;;;;;;;43.17;3.30;;;;;;;;;;4971094;28;20019;-56
2021/01/25 10:03:18;;;;;;;39.55;3.85;;;;;;;;;;4972212;28;20382;-56
2021/01/25 10:05:45;;;;;;;31.95;3.35;;;;;;;;;;4972026;28;20025;-55
2021/01/25 10:08:12;;;;;;;44.75;3.50;;;;;;;;;;4972084;28;20382;-57
2021/01/25 10:10:39;;;;;;;50.60;4.07;;;;;;;;;;4971815;28;20034;-57
2021/01/25 10:13:07;;;;;;;51.88;4.75;;;;;;;;;;4971956;28;20037;-55
2021/01/25 10:15:34;;;;;;;37.97;3.38;;;;;;;;;;4972073;28;20027;-58
2021/01/25 10:18:02;;;;;;;36.90;3.33;;;;;;;;;;4964812;28;20114;-56
2021/01/25 10:20:29;;;;;;;33.95;3.25;;;;;;;;;;4956288;28;20019;-57
2021/01/25 10:22:57;;;;;;;28.85;2.72;;;;;;;;;;4971537;28;20043;-56
2021/01/25 10:25:24;;;;;;;22.08;2.95;;;;;;;;;;4970027;28;20478;-52
2021/01/25 10:27:51;;;;;;;21.55;2.35;;;;;;;;;;4971522;28;20027;-53
2021/01/25 10:30:20;;;;;;;30.73;3.58;;;;;;;;;;4971711;28;20030;-58
2021/01/25 10:32:47;;;;;;;48.63;5.17;;;;;;;;;;4971487;28;20105;-56
2021/01/25 10:35:14;;;;;;;51.13;5.05;;;;;;;;;;4971476;28;20065;-55
2021/01/25 10:37:42;;;;;;;35.88;4.65;;;;;;;;;;4971806;28;20110;-57
2021/01/25 10:40:10;;;;;;;39.42;5.05;;;;;;;;;;4971378;28;20054;-54
2021/01/25 10:42:37;;;;;;;41.75;4.07;;;;;;;;;;4971458;28;20408;-55
2021/01/25 10:45:05;;;;;;;34.45;4.30;;;;;;;;;;4971654;28;20018;-55
2021/01/25 10:47:32;;;;;;;29.33;3.50;;;;;;;;;;4971592;28;20050;-55
2021/01/25 10:49:59;;;;;;;33.63;4.38;;;;;;;;;;4971433;28;20029;-54
2021/01/25 10:52:26;;;;;;;31.40;4.72;;;;;;;;;;4971576;28;20029;-55
2021/01/25 10:54:59;;;;;;;54.67;5.05;;;;;;;;;;4971576;28;20051;-53
2021/01/25 10:57:26;;;;;;;62.25;6.82;;;;;;;;;;4971315;28;20026;-56
2021/01/25 10:59:53;;;;;;;75.78;5.80;;;;;;;;;;4971258;28;20049;-55
2021/01/25 11:02:20;;;;;;;55.72;5.95;;;;;;;;;;4971406;28;20023;-55
2021/01/25 11:04:47;;;;;;;53.22;6.95;;;;;;;;;;4971232;28;20026;-52
2021/01/25 11:07:14;;;;;;;41.70;4.65;;;;;;;;;;4971042;28;20114;-54
2021/01/25 11:09:41;;;;;;;56.60;4.80;;;;;;;;;;4971242;28;20066;-53
2021/01/25 11:12:08;;;;;;;46.53;4.38;;;;;;;;;;4971084;28;20098;-55
2021/01/25 11:14:35;;;;;;;34.58;4.20;;;;;;;;;;4970992;28;20482;-54
2021/01/25 11:17:02;;;;;;;41.33;3.90;;;;;;;;;;4971214;28;20034;-55
2021/01/25 11:19:29;;;;;;;33.97;4.28;;;;;;;;;;4970976;28;20024;-54
2021/01/25 11:21:56;;;;;;;30.17;3.15;;;;;;;;;;4969541;28;20056;-55
2021/01/25 11:24:23;;;;;;;26.73;3.08;;;;;;;;;;4970831;28;20184;-54
2021/01/25 11:26:53;;;;;;;23.58;3.10;;;;;;;;;;4970892;28;20023;-54
2021/01/25 11:29:20;;;;;;;35.97;4.10;;;;;;;;;;4969920;28;20019;-55
2021/01/25 11:31:47;;;;;;;36.92;5.13;;;;;;;;;;4970963;28;20023;-55
2021/01/25 11:34:14;;;;;;;29.67;3.65;;;;;;;;;;4970732;28;20086;-55
2021/01/25 11:36:41;;;;;;;31.13;3.58;;;;;;;;;;4970632;28;20110;-54
2021/01/25 11:39:08;;;;;;;23.45;3.95;;;;;;;;;;4970939;28;20027;-54
2021/01/25 11:41:35;;;;;;;40.22;3.80;;;;;;;;;;4970683;28;20068;-56
2021/01/25 11:44:02;;;;;;;26.75;3.67;;;;;;;;;;4970737;28;20093;-53
2021/01/25 11:46:29;;;;;;;31.98;4.28;;;;;;;;;;4970851;28;20045;-53
2021/01/25 11:48:56;;;;;;;36.47;3.72;;;;;;;;;;4970636;28;20015;-54
2021/01/25 11:51:23;;;;;;;26.77;3.45;;;;;;;;;;4970519;28;20114;-49
2021/01/25 11:53:50;;;;;;;23.73;2.92;;;;;;;;;;4970656;28;20034;-52
2021/01/25 11:56:18;;;;;;;17.60;2.63;;;;;;;;;;4970594;28;20023;-50
2021/01/25 11:58:45;;;;;;;20.58;2.58;;;;;;;;;;4970521;28;20031;-54
2021/01/25 12:01:12;;;;;;;17.05;2.47;;;;;;;;;;4970480;28;20023;-55
2021/01/25 12:03:39;;;;;;;15.20;2.47;;;;;;;;;;4970662;28;20069;-50
2021/01/25 12:06:06;;;;;;;16.98;2.90;;;;;;;;;;4970387;28;20580;-49
2021/01/25 12:08:36;;;;;;;17.73;3.13;;;;;;;;;;4970490;28;20028;-54
2021/01/25 12:11:04;;;;;;;8.73;2.70;;;;;;;;;;4970523;28;20023;-55
2021/01/25 12:13:31;;;;;;;22.02;3.47;;;;;;;;;;4970368;28;20057;-53
2021/01/25 12:15:58;;;;;;;8.45;2.78;;;;;;;;;;4969158;28;20106;-54
2021/01/25 12:18:28;;;;;;;14.75;2.60;;;;;;;;;;4969150;28;20076;-50
2021/01/25 12:20:55;;;;;;;14.52;2.40;;;;;;;;;;4970186;28;20038;-54
2021/01/25 12:23:22;;;;;;;8.18;2.53;;;;;;;;;;4970090;28;20480;-55
2021/01/25 12:25:50;;;;;;;12.45;2.33;;;;;;;;;;4970447;28;20102;-55
2021/01/25 12:28:17;;;;;;;19.80;2.70;;;;;;;;;;4970204;28;20385;-56
2021/01/25 12:30:44;;;;;;;14.75;2.33;;;;;;;;;;4968904;28;20405;-55
2021/01/25 12:33:11;;;;;;;13.95;1.90;;;;;;;;;;4970236;28;20137;-55
2021/01/25 12:35:38;;;;;;;14.98;2.50;;;;;;;;;;4966867;28;21035;-54
2021/01/25 12:38:06;;;;;;;11.18;1.92;;;;;;;;;;4960048;28;20022;-51
2021/01/25 12:40:34;;;;;;;22.08;2.80;;;;;;;;;;4963113;28;20482;-53
2021/01/25 12:43:01;;;;;;;14.90;2.42;;;;;;;;;;4973033;28;20045;-55
2021/01/25 12:45:29;;;;;;;35.78;2.90;;;;;;;;;;4964561;28;20042;-51
2021/01/25 12:47:56;;;;;;;11.65;2.42;;;;;;;;;;4970507;28;20011;-52
2021/01/25 12:50:24;;;;;;;12.85;2.92;;;;;;;;;;4956991;28;20062;-52
2021/01/25 12:52:51;;;;;;;14.35;2.20;;;;;;;;;;4962807;28;20050;-52
2021/01/25 12:55:18;;;;;;;13.10;2.65;;;;;;;;;;4966207;28;20054;-53
2021/01/25 12:57:46;;;;;;;16.42;2.35;;;;;;;;;;4964975;28;20537;-54
2021/01/25 13:00:13;;;;;;;17.98;3.05;;;;;;;;;;4966907;28;20040;-55
2021/01/25 13:02:40;;;;;;;15.73;2.78;;;;;;;;;;4967516;28;20356;-55
2021/01/25 13:05:08;;;;;;;12.60;2.85;;;;;;;;;;4956834;28;20023;-53
2021/01/25 13:07:35;;;;;;;12.93;2.47;;;;;;;;;;4963784;28;20482;-53
2021/01/25 13:10:02;;;;;;;9.80;2.40;;;;;;;;;;4960452;28;20082;-54
2021/01/25 13:12:32;;;;;;;16.10;2.65;;;;;;;;;;4964133;28;20084;-54
2021/01/25 13:14:59;;;;;;;18.33;2.95;;;;;;;;;;4965941;28;20085;-52
2021/01/25 13:17:26;;;;;;;13.55;2.83;;;;;;;;;;4970011;28;20055;-55
2021/01/25 13:19:53;;;;;;;44.15;4.55;;;;;;;;;;4955015;28;20080;-48
2021/01/25 13:22:20;;;;;;;32.25;2.97;;;;;;;;;;4964300;28;20485;-59
2021/01/25 13:24:47;;;;;;;25.13;2.83;;;;;;;;;;4968779;28;20027;-47
2021/01/25 13:27:14;;;;;;;13.23;2.72;;;;;;;;;;4965770;28;20026;-46
2021/01/25 13:29:41;;;;;;;27.98;3.10;;;;;;;;;;4959018;28;20517;-39
2021/01/25 13:32:08;;;;;;;22.63;3.40;;;;;;;;;;4960096;28;20034;-41
2021/01/25 13:34:36;;;;;;;19.83;3.08;;;;;;;;;;4965154;28;20039;-44
2021/01/25 13:37:03;;;;;;;16.17;2.78;;;;;;;;;;4968103;28;20079;-44
2021/01/25 13:39:31;;;;;;;27.92;3.25;;;;;;;;;;4968892;28;20501;-48
2021/01/25 13:41:58;;;;;;;33.83;3.40;;;;;;;;;;4964839;28;20038;-39
2021/01/25 13:44:26;;;;;;;23.23;2.58;;;;;;;;;;4965322;28;20050;-40
2021/01/25 13:46:53;;;;;;;23.63;3.42;;;;;;;;;;4963639;28;20088;-43
2021/01/25 13:49:20;;;;;;;23.75;3.33;;;;;;;;;;4966122;28;20038;-50
2021/01/25 13:51:48;;;;;;;24.48;2.95;;;;;;;;;;4954532;28;20022;-44
2021/01/25 13:54:15;;;;;;;18.80;3.13;;;;;;;;;;4951299;28;20486;-39
2021/01/25 13:56:43;;;;;;;17.42;2.92;;;;;;;;;;4952741;28;20387;-43
2021/01/25 13:59:14;;;;;;;12.15;2.58;;;;;;;;;;4953049;28;20031;-40
2021/01/25 14:01:42;;;;;;;12.80;2.73;;;;;;;;;;4960534;28;20041;-41
2021/01/25 14:04:09;;;;;;;16.35;3.10;;;;;;;;;;4969100;28;20100;-40
2021/01/25 14:06:36;;;;;;;11.07;2.42;;;;;;;;;;4965877;28;20019;-50
2021/01/25 14:09:04;;;;;;;15.57;2.80;;;;;;;;;;4959490;28;20023;-43
2021/01/25 14:11:32;;;;;;;9.02;2.22;;;;;;;;;;4964587;28;20453;-43
2021/01/25 14:13:59;;;;;;;11.13;2.17;;;;;;;;;;4965157;28;20042;-44
2021/01/25 14:16:26;;;;;;;13.65;2.97;;;;;;;;;;4959590;28;20027;-40
2021/01/25 14:18:53;;;;;;;21.65;3.30;;;;;;;;;;4954387;28;20070;-43
2021/01/25 14:21:20;;;;;;;18.75;3.28;;;;;;;;;;4963420;28;20023;-43
2021/01/25 14:23:47;;;;;;;21.20;2.97;;;;;;;;;;4967699;28;20498;-40
2021/01/25 14:26:14;;;;;;;16.67;2.83;;;;;;;;;;4965807;28;20510;-43
2021/01/25 14:28:41;;;;;;;10.93;2.70;;;;;;;;;;4968543;28;20033;-42
2021/01/25 14:31:08;;;;;;;14.63;2.65;;;;;;;;;;4950932;28;20027;-41
2021/01/25 14:33:35;;;;;;;20.90;2.92;;;;;;;;;;4950340;28;20035;-43
2021/01/25 14:36:02;;;;;;;13.68;2.80;;;;;;;;;;4957144;28;20026;-40
2021/01/25 14:38:29;;;;;;;15.63;3.60;;;;;;;;;;4964363;28;20030;-44